sensor_id;sensor_type;location;lat;lon;timestamp;P1;durP1;ratioP1;P2;durP2;ratioP2
7887;SDS011;3989;48.810;9.208;2023-03-01T10:25:55;17.27;;;12.53;;
7887;SDS011;3989;48.810;9.208;2023-03-01T10:28:36;15.43;;;12.23;;
7887;SDS011;3989;48.810;9.208;2023-03-01T10:31:11;13.87;;;11.83;;
7887;SDS011;3989;48.810;9.208;2023-03-01T10:33:39;14.90;;;11.50;;
7887;SDS011;3989;48.810;9.208;2023-03-01T10:36:07;14.67;;;12.07;;
7887;SDS011;3989;48.810;9.208;2023-03-01T10:38:47;21.53;;;12.77;;
7887;SDS011;3989;48.810;9.208;2023-03-01T10:41:18;14.43;;;11.33;;
7887;SDS011;3989;48.810;9.208;2023-03-01T10:43:49;15.43;;;12.50;;
7887;SDS011;3989;48.810;9.208;2023-03-01T10:46:22;13.87;;;12.13;;
7887;SDS011;3989;48.810;9.208;2023-03-01T10:49:00;15.37;;;11.80;;
7887;SDS011;3989;48.810;9.208;2023-03-01T10:51:32;16.30;;;11.87;;
7887;SDS011;3989;48.810;9.208;2023-03-01T10:53:59;15.73;;;11.73;;
7887;SDS011;3989;48.810;9.208;2023-03-01T10:56:29;17.57;;;13.23;;
7887;SDS011;3989;48.810;9.208;2023-03-01T10:59:19;17.00;;;12.03;;
7887;SDS011;3989;48.810;9.208;2023-03-01T11:02:01;15.20;;;11.77;;
7887;SDS011;3989;48.810;9.208;2023-03-01T11:04:34;16.47;;;12.93;;
7887;SDS011;3989;48.810;9.208;2023-03-01T11:07:01;14.43;;;12.00;;
7887;SDS011;3989;48.810;9.208;2023-03-01T11:09:31;16.17;;;12.07;;
7887;SDS011;3989;48.810;9.208;2023-03-01T11:12:05;15.83;;;12.77;;
7887;SDS011;3989;48.810;9.208;2023-03-01T11:14:39;16.53;;;13.03;;
7887;SDS011;3989;48.810;9.208;2023-03-01T11:17:15;15.17;;;12.07;;
7887;SDS011;3989;48.810;9.208;2023-03-01T11:19:52;18.97;;;13.37;;
7887;SDS011;3989;48.810;9.208;2023-03-01T11:22:26;16.27;;;12.23;;
7887;SDS011;3989;48.810;9.208;2023-03-01T11:24:54;17.60;;;11.57;;
7887;SDS011;3989;48.810;9.208;2023-03-01T11:27:25;15.23;;;11.37;;
7887;SDS011;3989;48.810;9.208;2023-03-01T11:29:55;15.90;;;12.03;;
7887;SDS011;3989;48.810;9.208;2023-03-01T11:32:27;15.70;;;11.67;;
7887;SDS011;3989;48.810;9.208;2023-03-01T11:35:00;17.20;;;11.83;;
7887;SDS011;3989;48.810;9.208;2023-03-01T11:37:32;16.23;;;11.83;;
7887;SDS011;3989;48.810;9.208;2023-03-01T11:40:10;13.77;;;11.33;;
7887;SDS011;3989;48.810;9.208;2023-03-01T11:42:52;14.10;;;11.47;;
7887;SDS011;3989;48.810;9.208;2023-03-01T11:45:26;14.53;;;11.63;;
7887;SDS011;3989;48.810;9.208;2023-03-01T11:48:05;14.17;;;10.83;;
7887;SDS011;3989;48.810;9.208;2023-03-01T11:50:42;14.57;;;11.30;;
7887;SDS011;3989;48.810;9.208;2023-03-01T11:56:09;13.80;;;10.30;;
7887;SDS011;3989;48.810;9.208;2023-03-01T11:58:52;13.77;;;10.17;;
7887;SDS011;3989;48.810;9.208;2023-03-01T12:01:32;19.50;;;11.10;;
7887;SDS011;3989;48.810;9.208;2023-03-01T12:07:20;13.10;;;10.90;;
7887;SDS011;3989;48.810;9.208;2023-03-01T12:10:02;12.70;;;10.60;;
7887;SDS011;3989;48.810;9.208;2023-03-01T12:12:45;15.23;;;12.40;;
7887;SDS011;3989;48.810;9.208;2023-03-01T12:18:23;14.40;;;10.97;;
7887;SDS011;3989;48.810;9.208;2023-03-01T12:21:04;12.30;;;10.77;;
7887;SDS011;3989;48.810;9.208;2023-03-01T12:23:44;13.03;;;10.93;;
7887;SDS011;3989;48.810;9.208;2023-03-01T12:26:33;12.17;;;10.17;;
7887;SDS011;3989;48.810;9.208;2023-03-01T12:29:06;14.53;;;10.90;;
7887;SDS011;3989;48.810;9.208;2023-03-01T12:31:49;14.27;;;10.20;;
7887;SDS011;3989;48.810;9.208;2023-03-01T12:34:34;14.87;;;9.37;;
7887;SDS011;3989;48.810;9.208;2023-03-01T12:37:25;15.17;;;9.93;;
7887;SDS011;3989;48.810;9.208;2023-03-01T12:43:09;11.97;;;9.53;;
7887;SDS011;3989;48.810;9.208;2023-03-01T12:46:00;11.93;;;10.67;;
7887;SDS011;3989;48.810;9.208;2023-03-01T12:48:40;12.03;;;9.67;;
7887;SDS011;3989;48.810;9.208;2023-03-01T12:51:14;16.97;;;11.03;;
7887;SDS011;3989;48.810;9.208;2023-03-01T12:53:45;13.10;;;9.83;;
7887;SDS011;3989;48.810;9.208;2023-03-01T12:56:15;11.40;;;9.83;;
7887;SDS011;3989;48.810;9.208;2023-03-01T12:58:47;12.03;;;9.07;;
7887;SDS011;3989;48.810;9.208;2023-03-01T13:01:26;12.60;;;9.00;;
7887;SDS011;3989;48.810;9.208;2023-03-01T13:04:05;11.23;;;9.27;;
7887;SDS011;3989;48.810;9.208;2023-03-01T13:06:41;11.07;;;9.03;;
7887;SDS011;3989;48.810;9.208;2023-03-01T13:09:19;11.77;;;8.97;;
7887;SDS011;3989;48.810;9.208;2023-03-01T13:11:49;11.13;;;9.27;;
7887;SDS011;3989;48.810;9.208;2023-03-01T13:14:35;13.20;;;9.67;;
7887;SDS011;3989;48.810;9.208;2023-03-01T13:17:04;11.43;;;9.70;;
7887;SDS011;3989;48.810;9.208;2023-03-01T13:19:57;12.63;;;10.60;;
7887;SDS011;3989;48.810;9.208;2023-03-01T13:22:26;12.73;;;10.60;;
7887;SDS011;3989;48.810;9.208;2023-03-01T13:25:00;15.43;;;10.43;;
7887;SDS011;3989;48.810;9.208;2023-03-01T13:27:28;14.47;;;10.83;;
7887;SDS011;3989;48.810;9.208;2023-03-01T13:29:56;13.47;;;10.17;;
7887;SDS011;3989;48.810;9.208;2023-03-01T13:32:29;15.27;;;10.50;;
7887;SDS011;3989;48.810;9.208;2023-03-01T13:35:00;11.93;;;10.67;;
7887;SDS011;3989;48.810;9.208;2023-03-01T13:37:32;13.90;;;11.73;;
7887;SDS011;3989;48.810;9.208;2023-03-01T13:40:02;15.27;;;11.07;;
7887;SDS011;3989;48.810;9.208;2023-03-01T13:42:45;13.40;;;11.47;;
7887;SDS011;3989;48.810;9.208;2023-03-01T13:45:15;12.50;;;11.00;;
7887;SDS011;3989;48.810;9.208;2023-03-01T13:47:45;12.60;;;11.27;;
7887;SDS011;3989;48.810;9.208;2023-03-01T13:50:18;16.13;;;12.70;;
7887;SDS011;3989;48.810;9.208;2023-03-01T13:52:48;13.67;;;11.90;;
7887;SDS011;3989;48.810;9.208;2023-03-01T13:55:18;13.90;;;11.50;;
7887;SDS011;3989;48.810;9.208;2023-03-01T13:57:48;13.27;;;11.40;;
7887;SDS011;3989;48.810;9.208;2023-03-01T14:00:28;14.17;;;11.87;;
7887;SDS011;3989;48.810;9.208;2023-03-01T14:03:08;17.23;;;12.60;;
7887;SDS011;3989;48.810;9.208;2023-03-01T14:05:37;15.93;;;12.33;;
7887;SDS011;3989;48.810;9.208;2023-03-01T14:08:17;13.13;;;11.67;;
7887;SDS011;3989;48.810;9.208;2023-03-01T14:10:49;16.57;;;12.33;;
7887;SDS011;3989;48.810;9.208;2023-03-01T14:13:28;13.47;;;11.90;;
7887;SDS011;3989;48.810;9.208;2023-03-01T14:16:06;17.20;;;12.07;;
7887;SDS011;3989;48.810;9.208;2023-03-01T14:18:47;17.13;;;12.37;;
7887;SDS011;3989;48.810;9.208;2023-03-01T14:21:22;15.53;;;12.27;;
7887;SDS011;3989;48.810;9.208;2023-03-01T14:23:50;15.10;;;11.40;;
7887;SDS011;3989;48.810;9.208;2023-03-01T14:26:20;15.67;;;12.20;;
7887;SDS011;3989;48.810;9.208;2023-03-01T14:28:47;17.10;;;12.67;;
7887;SDS011;3989;48.810;9.208;2023-03-01T14:34:16;15.00;;;11.20;;
7887;SDS011;3989;48.810;9.208;2023-03-01T14:36:46;16.77;;;12.80;;
7887;SDS011;3989;48.810;9.208;2023-03-01T14:39:16;15.27;;;12.80;;
7887;SDS011;3989;48.810;9.208;2023-03-01T14:41:44;15.10;;;12.50;;
7887;SDS011;3989;48.810;9.208;2023-03-01T14:44:12;17.63;;;12.40;;
7887;SDS011;3989;48.810;9.208;2023-03-01T14:46:43;15.80;;;12.90;;
7887;SDS011;3989;48.810;9.208;2023-03-01T14:49:11;14.50;;;11.77;;
7887;SDS011;3989;48.810;9.208;2023-03-01T14:51:41;17.30;;;12.27;;
7887;SDS011;3989;48.810;9.208;2023-03-01T14:54:18;16.47;;;12.07;;
7887;SDS011;3989;48.810;9.208;2023-03-01T14:56:47;15.77;;;13.03;;
7887;SDS011;3989;48.810;9.208;2023-03-01T14:59:14;14.60;;;12.13;;
7887;SDS011;3989;48.810;9.208;2023-03-01T15:01:40;16.27;;;13.17;;
7887;SDS011;3989;48.810;9.208;2023-03-01T15:04:09;13.23;;;10.83;;
7887;SDS011;3989;48.810;9.208;2023-03-01T15:06:38;16.30;;;13.23;;
7887;SDS011;3989;48.810;9.208;2023-03-01T15:09:05;14.40;;;11.97;;
7887;SDS011;3989;48.810;9.208;2023-03-01T15:11:35;14.43;;;12.77;;
7887;SDS011;3989;48.810;9.208;2023-03-01T15:14:08;16.47;;;13.33;;
7887;SDS011;3989;48.810;9.208;2023-03-01T15:16:52;16.47;;;12.77;;
7887;SDS011;3989;48.810;9.208;2023-03-01T15:19:18;17.17;;;12.73;;
7887;SDS011;3989;48.810;9.208;2023-03-01T15:21:46;18.13;;;12.57;;
7887;SDS011;3989;48.810;9.208;2023-03-01T15:24:17;16.60;;;13.47;;
7887;SDS011;3989;48.810;9.208;2023-03-01T15:26:50;14.57;;;11.60;;
7887;SDS011;3989;48.810;9.208;2023-03-01T15:29:19;14.23;;;11.13;;
7887;SDS011;3989;48.810;9.208;2023-03-01T15:31:54;19.53;;;12.80;;
7887;SDS011;3989;48.810;9.208;2023-03-01T15:34:23;13.13;;;11.73;;
7887;SDS011;3989;48.810;9.208;2023-03-01T15:36:52;15.67;;;12.50;;
7887;SDS011;3989;48.810;9.208;2023-03-01T15:42:10;16.20;;;12.83;;
7887;SDS011;3989;48.810;9.208;2023-03-01T15:44:39;16.37;;;11.37;;
7887;SDS011;3989;48.810;9.208;2023-03-01T15:47:22;14.97;;;12.67;;
7887;SDS011;3989;48.810;9.208;2023-03-01T15:49:54;15.30;;;12.27;;
7887;SDS011;3989;48.810;9.208;2023-03-01T15:52:23;14.90;;;12.00;;
7887;SDS011;3989;48.810;9.208;2023-03-01T15:54:55;14.23;;;12.20;;
7887;SDS011;3989;48.810;9.208;2023-03-01T15:57:24;17.20;;;12.97;;
7887;SDS011;3989;48.810;9.208;2023-03-01T15:59:51;14.23;;;11.70;;
7887;SDS011;3989;48.810;9.208;2023-03-01T16:02:18;19.53;;;12.30;;
7887;SDS011;3989;48.810;9.208;2023-03-01T16:04:46;16.03;;;11.77;;
7887;SDS011;3989;48.810;9.208;2023-03-01T16:07:13;16.53;;;12.00;;
7887;SDS011;3989;48.810;9.208;2023-03-01T16:09:40;16.10;;;12.43;;
7887;SDS011;3989;48.810;9.208;2023-03-01T16:12:08;15.77;;;12.63;;
7887;SDS011;3989;48.810;9.208;2023-03-01T16:14:41;15.60;;;11.47;;
7887;SDS011;3989;48.810;9.208;2023-03-01T16:17:07;14.77;;;11.57;;
7887;SDS011;3989;48.810;9.208;2023-03-01T16:19:35;14.10;;;11.23;;
7887;SDS011;3989;48.810;9.208;2023-03-01T16:22:02;15.00;;;10.83;;
7887;SDS011;3989;48.810;9.208;2023-03-01T16:24:28;16.03;;;11.80;;
7887;SDS011;3989;48.810;9.208;2023-03-01T16:26:55;16.07;;;12.17;;
7887;SDS011;3989;48.810;9.208;2023-03-01T16:29:22;16.57;;;12.47;;
7887;SDS011;3989;48.810;9.208;2023-03-01T16:31:49;12.63;;;11.20;;
7887;SDS011;3989;48.810;9.208;2023-03-01T16:34:16;16.20;;;11.57;;
7887;SDS011;3989;48.810;9.208;2023-03-01T16:36:43;16.80;;;12.33;;
7887;SDS011;3989;48.810;9.208;2023-03-01T16:39:09;15.07;;;11.40;;
7887;SDS011;3989;48.810;9.208;2023-03-01T16:41:36;13.00;;;10.53;;
7887;SDS011;3989;48.810;9.208;2023-03-01T16:44:02;16.03;;;12.10;;
7887;SDS011;3989;48.810;9.208;2023-03-01T16:46:29;13.90;;;11.50;;
7887;SDS011;3989;48.810;9.208;2023-03-01T16:48:57;16.00;;;11.30;;
7887;SDS011;3989;48.810;9.208;2023-03-01T16:51:23;15.90;;;11.37;;
7887;SDS011;3989;48.810;9.208;2023-03-01T16:53:51;19.67;;;12.33;;
7887;SDS011;3989;48.810;9.208;2023-03-01T16:56:17;16.43;;;12.00;;
7887;SDS011;3989;48.810;9.208;2023-03-01T16:58:45;15.30;;;12.73;;
7887;SDS011;3989;48.810;9.208;2023-03-01T17:01:13;15.73;;;11.67;;
7887;SDS011;3989;48.810;9.208;2023-03-01T17:03:42;17.60;;;12.07;;
7887;SDS011;3989;48.810;9.208;2023-03-01T17:06:11;16.90;;;11.80;;
7887;SDS011;3989;48.810;9.208;2023-03-01T17:08:39;15.97;;;12.57;;
7887;SDS011;3989;48.810;9.208;2023-03-01T17:11:07;17.80;;;12.33;;
7887;SDS011;3989;48.810;9.208;2023-03-01T17:13:35;15.13;;;11.67;;
7887;SDS011;3989;48.810;9.208;2023-03-01T17:16:03;19.70;;;12.87;;
7887;SDS011;3989;48.810;9.208;2023-03-01T17:18:30;14.30;;;11.40;;
7887;SDS011;3989;48.810;9.208;2023-03-01T17:20:57;18.07;;;11.60;;
7887;SDS011;3989;48.810;9.208;2023-03-01T17:23:25;14.77;;;10.87;;
7887;SDS011;3989;48.810;9.208;2023-03-01T17:25:52;15.90;;;11.20;;
7887;SDS011;3989;48.810;9.208;2023-03-01T17:28:20;16.57;;;12.33;;
7887;SDS011;3989;48.810;9.208;2023-03-01T17:30:47;15.50;;;11.47;;
7887;SDS011;3989;48.810;9.208;2023-03-01T17:33:14;14.20;;;11.17;;
7887;SDS011;3989;48.810;9.208;2023-03-01T17:35:41;13.67;;;11.10;;
7887;SDS011;3989;48.810;9.208;2023-03-01T17:38:10;15.80;;;11.37;;
7887;SDS011;3989;48.810;9.208;2023-03-01T17:40:38;16.60;;;11.40;;
7887;SDS011;3989;48.810;9.208;2023-03-01T17:43:05;16.83;;;10.50;;
7887;SDS011;3989;48.810;9.208;2023-03-01T17:45:32;14.53;;;11.00;;
7887;SDS011;3989;48.810;9.208;2023-03-01T17:47:58;14.87;;;10.20;;
7887;SDS011;3989;48.810;9.208;2023-03-01T17:50:25;12.93;;;10.50;;
7887;SDS011;3989;48.810;9.208;2023-03-01T17:52:52;16.30;;;11.73;;
7887;SDS011;3989;48.810;9.208;2023-03-01T17:55:19;15.27;;;11.67;;
7887;SDS011;3989;48.810;9.208;2023-03-01T17:57:47;17.03;;;11.23;;
7887;SDS011;3989;48.810;9.208;2023-03-01T18:00:14;15.07;;;11.60;;
7887;SDS011;3989;48.810;9.208;2023-03-01T18:02:43;14.03;;;11.20;;
7887;SDS011;3989;48.810;9.208;2023-03-01T18:05:10;16.13;;;12.27;;
7887;SDS011;3989;48.810;9.208;2023-03-01T18:07:37;20.43;;;12.73;;
7887;SDS011;3989;48.810;9.208;2023-03-01T18:10:04;16.60;;;11.97;;
7887;SDS011;3989;48.810;9.208;2023-03-01T18:12:31;16.37;;;12.00;;
7887;SDS011;3989;48.810;9.208;2023-03-01T18:14:59;15.93;;;11.03;;
7887;SDS011;3989;48.810;9.208;2023-03-01T18:17:26;15.33;;;11.70;;
7887;SDS011;3989;48.810;9.208;2023-03-01T18:19:52;15.90;;;11.57;;
7887;SDS011;3989;48.810;9.208;2023-03-01T18:22:20;15.57;;;11.90;;
7887;SDS011;3989;48.810;9.208;2023-03-01T18:24:47;18.93;;;11.87;;
7887;SDS011;3989;48.810;9.208;2023-03-01T18:27:13;16.23;;;12.37;;
7887;SDS011;3989;48.810;9.208;2023-03-01T18:29:40;15.37;;;11.73;;
7887;SDS011;3989;48.810;9.208;2023-03-01T18:32:08;16.87;;;11.47;;
7887;SDS011;3989;48.810;9.208;2023-03-01T18:34:35;17.97;;;12.03;;
7887;SDS011;3989;48.810;9.208;2023-03-01T18:37:03;16.17;;;11.90;;
7887;SDS011;3989;48.810;9.208;2023-03-01T18:39:29;16.47;;;11.67;;
7887;SDS011;3989;48.810;9.208;2023-03-01T18:41:56;13.57;;;11.43;;
7887;SDS011;3989;48.810;9.208;2023-03-01T18:44:23;18.40;;;12.30;;
7887;SDS011;3989;48.810;9.208;2023-03-01T18:46:50;15.50;;;11.87;;
7887;SDS011;3989;48.810;9.208;2023-03-01T18:49:18;18.93;;;11.93;;
7887;SDS011;3989;48.810;9.208;2023-03-01T18:51:45;16.57;;;12.00;;
7887;SDS011;3989;48.810;9.208;2023-03-01T18:54:12;20.60;;;12.60;;
7887;SDS011;3989;48.810;9.208;2023-03-01T18:56:38;14.67;;;11.87;;
7887;SDS011;3989;48.810;9.208;2023-03-01T18:59:05;17.47;;;11.63;;
7887;SDS011;3989;48.810;9.208;2023-03-01T19:01:32;16.80;;;13.00;;
7887;SDS011;3989;48.810;9.208;2023-03-01T19:03:59;16.63;;;12.13;;
7887;SDS011;3989;48.810;9.208;2023-03-01T19:06:28;19.37;;;12.53;;
7887;SDS011;3989;48.810;9.208;2023-03-01T19:08:57;20.47;;;13.33;;
7887;SDS011;3989;48.810;9.208;2023-03-01T19:11:25;19.10;;;13.17;;
7887;SDS011;3989;48.810;9.208;2023-03-01T19:13:54;21.70;;;13.53;;
7887;SDS011;3989;48.810;9.208;2023-03-01T19:16:23;21.23;;;14.43;;
7887;SDS011;3989;48.810;9.208;2023-03-01T19:18:53;22.33;;;14.10;;
7887;SDS011;3989;48.810;9.208;2023-03-01T19:21:23;23.13;;;14.53;;
7887;SDS011;3989;48.810;9.208;2023-03-01T19:23:52;28.37;;;17.00;;
7887;SDS011;3989;48.810;9.208;2023-03-01T19:26:20;40.33;;;18.73;;
7887;SDS011;3989;48.810;9.208;2023-03-01T19:28:48;35.60;;;19.80;;
7887;SDS011;3989;48.810;9.208;2023-03-01T19:31:16;51.63;;;25.43;;
7887;SDS011;3989;48.810;9.208;2023-03-01T19:33:44;45.23;;;23.37;;
7887;SDS011;3989;48.810;9.208;2023-03-01T19:36:11;36.73;;;19.87;;
7887;SDS011;3989;48.810;9.208;2023-03-01T19:38:39;35.83;;;19.87;;
7887;SDS011;3989;48.810;9.208;2023-03-01T19:41:09;22.80;;;15.00;;
7887;SDS011;3989;48.810;9.208;2023-03-01T19:43:39;23.83;;;13.93;;
7887;SDS011;3989;48.810;9.208;2023-03-01T19:46:07;19.80;;;13.03;;
7887;SDS011;3989;48.810;9.208;2023-03-01T19:48:35;19.57;;;13.70;;
7887;SDS011;3989;48.810;9.208;2023-03-01T19:51:04;21.37;;;14.43;;
7887;SDS011;3989;48.810;9.208;2023-03-01T19:53:32;19.50;;;13.30;;
7887;SDS011;3989;48.810;9.208;2023-03-01T19:55:59;22.13;;;14.43;;
7887;SDS011;3989;48.810;9.208;2023-03-01T19:58:28;17.13;;;12.30;;
7887;SDS011;3989;48.810;9.208;2023-03-01T20:00:56;19.93;;;13.47;;
7887;SDS011;3989;48.810;9.208;2023-03-01T20:03:24;23.23;;;14.30;;
7887;SDS011;3989;48.810;9.208;2023-03-01T20:05:52;19.37;;;12.70;;
7887;SDS011;3989;48.810;9.208;2023-03-01T20:08:18;18.97;;;13.13;;
7887;SDS011;3989;48.810;9.208;2023-03-01T20:10:45;21.67;;;14.13;;
7887;SDS011;3989;48.810;9.208;2023-03-01T20:13:12;19.60;;;14.10;;
7887;SDS011;3989;48.810;9.208;2023-03-01T20:15:41;20.23;;;13.93;;
7887;SDS011;3989;48.810;9.208;2023-03-01T20:18:09;20.27;;;13.60;;
7887;SDS011;3989;48.810;9.208;2023-03-01T20:20:38;17.73;;;13.03;;
7887;SDS011;3989;48.810;9.208;2023-03-01T20:23:05;20.40;;;13.83;;
7887;SDS011;3989;48.810;9.208;2023-03-01T20:25:33;21.97;;;13.13;;
7887;SDS011;3989;48.810;9.208;2023-03-01T20:28:00;22.43;;;12.77;;
7887;SDS011;3989;48.810;9.208;2023-03-01T20:30:27;23.40;;;13.40;;
7887;SDS011;3989;48.810;9.208;2023-03-01T20:32:55;18.00;;;13.70;;
7887;SDS011;3989;48.810;9.208;2023-03-01T20:35:22;18.77;;;13.77;;
7887;SDS011;3989;48.810;9.208;2023-03-01T20:37:50;21.00;;;13.80;;
7887;SDS011;3989;48.810;9.208;2023-03-01T20:40:17;19.20;;;13.47;;
7887;SDS011;3989;48.810;9.208;2023-03-01T20:42:45;17.83;;;12.73;;
7887;SDS011;3989;48.810;9.208;2023-03-01T20:45:11;18.70;;;13.33;;
7887;SDS011;3989;48.810;9.208;2023-03-01T20:47:38;21.23;;;12.90;;
7887;SDS011;3989;48.810;9.208;2023-03-01T20:50:08;19.90;;;13.27;;
7887;SDS011;3989;48.810;9.208;2023-03-01T20:52:36;18.73;;;13.63;;
7887;SDS011;3989;48.810;9.208;2023-03-01T20:55:03;21.70;;;14.10;;
7887;SDS011;3989;48.810;9.208;2023-03-01T20:57:30;19.33;;;13.37;;
7887;SDS011;3989;48.810;9.208;2023-03-01T20:59:57;18.10;;;13.67;;
7887;SDS011;3989;48.810;9.208;2023-03-01T21:02:24;19.03;;;13.27;;
7887;SDS011;3989;48.810;9.208;2023-03-01T21:04:51;19.57;;;14.40;;
7887;SDS011;3989;48.810;9.208;2023-03-01T21:07:21;21.23;;;13.50;;
7887;SDS011;3989;48.810;9.208;2023-03-01T21:09:48;19.20;;;13.60;;
7887;SDS011;3989;48.810;9.208;2023-03-01T21:12:15;18.07;;;14.03;;
7887;SDS011;3989;48.810;9.208;2023-03-01T21:14:42;21.13;;;14.10;;
7887;SDS011;3989;48.810;9.208;2023-03-01T21:17:12;21.20;;;14.47;;
7887;SDS011;3989;48.810;9.208;2023-03-01T21:19:41;20.50;;;14.07;;
7887;SDS011;3989;48.810;9.208;2023-03-01T21:22:09;18.80;;;13.87;;
7887;SDS011;3989;48.810;9.208;2023-03-01T21:24:39;18.33;;;13.77;;
7887;SDS011;3989;48.810;9.208;2023-03-01T21:27:07;18.07;;;12.27;;
7887;SDS011;3989;48.810;9.208;2023-03-01T21:29:35;20.33;;;13.50;;
7887;SDS011;3989;48.810;9.208;2023-03-01T21:32:03;21.43;;;13.47;;
7887;SDS011;3989;48.810;9.208;2023-03-01T21:34:30;19.50;;;12.87;;
7887;SDS011;3989;48.810;9.208;2023-03-01T21:36:57;17.57;;;12.77;;
7887;SDS011;3989;48.810;9.208;2023-03-01T21:39:25;18.53;;;12.90;;
7887;SDS011;3989;48.810;9.208;2023-03-01T21:41:54;17.60;;;12.93;;
7887;SDS011;3989;48.810;9.208;2023-03-01T21:44:21;19.80;;;13.30;;
7887;SDS011;3989;48.810;9.208;2023-03-01T21:46:48;18.50;;;13.83;;
7887;SDS011;3989;48.810;9.208;2023-03-01T21:49:15;20.63;;;13.00;;
7887;SDS011;3989;48.810;9.208;2023-03-01T21:51:43;20.57;;;14.27;;
7887;SDS011;3989;48.810;9.208;2023-03-01T21:54:11;22.30;;;14.37;;
7887;SDS011;3989;48.810;9.208;2023-03-01T21:56:39;18.43;;;12.87;;
7887;SDS011;3989;48.810;9.208;2023-03-01T21:59:10;19.70;;;14.30;;
7887;SDS011;3989;48.810;9.208;2023-03-01T22:01:39;23.77;;;14.40;;
7887;SDS011;3989;48.810;9.208;2023-03-01T22:04:06;20.37;;;13.00;;
7887;SDS011;3989;48.810;9.208;2023-03-01T22:06:33;21.93;;;13.90;;
7887;SDS011;3989;48.810;9.208;2023-03-01T22:09:05;20.83;;;13.03;;
7887;SDS011;3989;48.810;9.208;2023-03-01T22:11:34;17.63;;;12.87;;
7887;SDS011;3989;48.810;9.208;2023-03-01T22:14:03;22.07;;;13.27;;
7887;SDS011;3989;48.810;9.208;2023-03-01T22:16:32;20.77;;;13.27;;
7887;SDS011;3989;48.810;9.208;2023-03-01T22:19:01;19.73;;;13.57;;
7887;SDS011;3989;48.810;9.208;2023-03-01T22:21:28;20.87;;;13.63;;
7887;SDS011;3989;48.810;9.208;2023-03-01T22:23:55;19.30;;;13.47;;
7887;SDS011;3989;48.810;9.208;2023-03-01T22:26:23;18.73;;;12.37;;
7887;SDS011;3989;48.810;9.208;2023-03-01T22:28:53;20.37;;;13.53;;
7887;SDS011;3989;48.810;9.208;2023-03-01T22:31:21;20.70;;;13.30;;
7887;SDS011;3989;48.810;9.208;2023-03-01T22:33:50;18.07;;;13.77;;
7887;SDS011;3989;48.810;9.208;2023-03-01T22:36:18;18.23;;;13.60;;
7887;SDS011;3989;48.810;9.208;2023-03-01T22:38:45;21.20;;;14.63;;
7887;SDS011;3989;48.810;9.208;2023-03-01T22:41:12;21.87;;;14.57;;
7887;SDS011;3989;48.810;9.208;2023-03-01T22:43:41;18.93;;;13.70;;
7887;SDS011;3989;48.810;9.208;2023-03-01T22:46:08;23.33;;;14.73;;
7887;SDS011;3989;48.810;9.208;2023-03-01T22:48:36;18.63;;;12.77;;
7887;SDS011;3989;48.810;9.208;2023-03-01T22:51:05;21.17;;;14.23;;
7887;SDS011;3989;48.810;9.208;2023-03-01T22:53:32;20.10;;;13.30;;
7887;SDS011;3989;48.810;9.208;2023-03-01T22:56:08;19.80;;;13.57;;
7887;SDS011;3989;48.810;9.208;2023-03-01T22:58:36;18.90;;;13.40;;
7887;SDS011;3989;48.810;9.208;2023-03-01T23:01:07;20.87;;;13.10;;
7887;SDS011;3989;48.810;9.208;2023-03-01T23:03:35;26.17;;;14.33;;
7887;SDS011;3989;48.810;9.208;2023-03-01T23:06:01;20.03;;;14.50;;
7887;SDS011;3989;48.810;9.208;2023-03-01T23:08:30;22.70;;;14.17;;
7887;SDS011;3989;48.810;9.208;2023-03-01T23:10:56;22.43;;;14.53;;
7887;SDS011;3989;48.810;9.208;2023-03-01T23:13:23;24.37;;;15.23;;
7887;SDS011;3989;48.810;9.208;2023-03-01T23:15:51;22.23;;;14.43;;
7887;SDS011;3989;48.810;9.208;2023-03-01T23:18:19;23.90;;;15.10;;
7887;SDS011;3989;48.810;9.208;2023-03-01T23:20:46;22.13;;;14.27;;
7887;SDS011;3989;48.810;9.208;2023-03-01T23:23:13;25.73;;;15.47;;
7887;SDS011;3989;48.810;9.208;2023-03-01T23:25:50;28.90;;;14.73;;
7887;SDS011;3989;48.810;9.208;2023-03-01T23:28:18;21.27;;;14.40;;
7887;SDS011;3989;48.810;9.208;2023-03-01T23:30:51;22.23;;;14.83;;
7887;SDS011;3989;48.810;9.208;2023-03-01T23:33:19;21.30;;;14.37;;
7887;SDS011;3989;48.810;9.208;2023-03-01T23:35:45;22.80;;;15.73;;
7887;SDS011;3989;48.810;9.208;2023-03-01T23:38:12;24.83;;;15.27;;
7887;SDS011;3989;48.810;9.208;2023-03-01T23:40:39;20.03;;;14.87;;
7887;SDS011;3989;48.810;9.208;2023-03-01T23:43:07;22.00;;;14.17;;
7887;SDS011;3989;48.810;9.208;2023-03-01T23:45:35;23.17;;;15.67;;
7887;SDS011;3989;48.810;9.208;2023-03-01T23:48:08;22.97;;;14.60;;
7887;SDS011;3989;48.810;9.208;2023-03-01T23:50:35;19.47;;;13.93;;
7887;SDS011;3989;48.810;9.208;2023-03-01T23:53:05;20.23;;;13.63;;
7887;SDS011;3989;48.810;9.208;2023-03-01T23:55:34;20.30;;;15.17;;
7887;SDS011;3989;48.810;9.208;2023-03-01T23:58:02;22.53;;;14.77;;
